Rocky Mountain Metropolitan Airport
KBJC : rendu visible

Aérodrome :











RETROUVEZ-NOUS SUR...

 
LOGIN :

S'inscrire | Disclaimer

   EN    FR    IT 

 









Légende :    VFR   VFR Marginal   IFR   IFR Intensif   IFR Très Intensif
Visi : 
Plafond : 
>= 8 km
>= 3000ft
5 à 8 km
1000 à 3000 ft
1500m à 5 km
500 à 1000 ft
800 à 1500m
200 à 500 ft
< 800m
< 200 ft
Symboles :   Orages  Brouillard  Fortes neiges  Fortes précipitations  Vent > 20 kt






- Altitude de l'aérodrome : 5673 ft


KBJC - Rocky Mountain Metropolitan

DERNIER METAR :
  • 021030Z AUTO 04007KT 2SM -DZ OVC002 00/00 A2977 RMK AO2

METARs EXPIRÉS :
  • 021012Z AUTO 03008KT 2SM -DZ OVC002 00/00 A2978 RMK AO2
  • 020954Z AUTO 04009KT 2 1/2SM -DZ OVC002 00/00 A2978 RMK AO2
  • 020930Z AUTO 05008KT 2 1/2SM -DZ OVC002 00/00 A2978 RMK AO2
  • 020912Z AUTO 04008KT 2 1/2SM -DZ OVC002 01/01 A2978 RMK AO2
  • 020854Z AUTO 06007KT 3SM -DZ OVC004 02/01 A2978 RMK AO2
  • 020830Z AUTO 05007KT 3SM -DZ OVC004 02/02 A2979 RMK AO2
  • 020812Z AUTO 06009KT 5SM -DZ OVC006 03/02 A2979 RMK AO2
  • 020754Z AUTO 03008KT 5SM -DZ OVC004 03/02 A2980 RMK AO2

TAF KBJC
Valide du 02 à 06h jusqu'au 03 à 06h UTC


020553Z 0206/0306 02011KT P6SM BKN020 BKN070
FM020700 08010KT P6SM OVC005
TEMPO 0209/0213 2SM -DZ BR BKN003
FM021300 06010KT 3SM -DZ BR BKN005 OVC008
FM021800 02011KT 4SM -SHSN BKN005 OVC010
FM022000 01015KT 3SM -SN BKN002 OVC005
FM030300 36010KT P6SM VCSH SCT015 OVC035



MET'MAP, la Météo Aéronautique d'un coup d'oeil ! - Copyright ORBIFLY Décembre 2007 - Disclaimer

ORBIFLY MET'MAP TEAM :

Programmation & Développement : Alexandra Zaïnal
Sur une idée originale de : Baudouin d'Aumeries
Assistance à la programmation : Marc-Olivier Méhu
Soutien technique & logistique : Manuel Goepfert

Contact : metmap@orbifly.com




SOURCES & CREDITS :

   NOAA       Earth
Advisory